sensor_id;sensor_type;location;lat;lon;timestamp;pressure;altitude;pressure_sealevel;temperature;humidity
53300;BME280;39187;48.476;8.310;2023-09-30T00:01:26;92168.09;;;14.62;100.00
53300;BME280;39187;48.476;8.310;2023-09-30T00:03:52;92166.53;;;14.45;100.00
53300;BME280;39187;48.476;8.310;2023-09-30T00:06:18;92161.19;;;14.45;100.00
53300;BME280;39187;48.476;8.310;2023-09-30T00:08:44;92157.75;;;14.44;100.00
53300;BME280;39187;48.476;8.310;2023-09-30T00:11:11;92158.16;;;14.43;100.00
53300;BME280;39187;48.476;8.310;2023-09-30T00:13:36;92162.44;;;14.37;100.00
53300;BME280;39187;48.476;8.310;2023-09-30T00:19:18;92142.06;;;14.23;100.00
53300;BME280;39187;48.476;8.310;2023-09-30T00:25:06;92145.00;;;14.09;100.00
53300;BME280;39187;48.476;8.310;2023-09-30T00:27:32;92154.28;;;14.04;100.00
53300;BME280;39187;48.476;8.310;2023-09-30T00:29:57;92147.97;;;13.95;100.00
53300;BME280;39187;48.476;8.310;2023-09-30T00:32:23;92148.66;;;13.56;100.00
53300;BME280;39187;48.476;8.310;2023-09-30T00:34:49;92145.19;;;13.36;100.00
53300;BME280;39187;48.476;8.310;2023-09-30T00:37:14;92139.56;;;13.30;100.00
53300;BME280;39187;48.476;8.310;2023-09-30T00:39:40;92144.47;;;13.32;100.00
53300;BME280;39187;48.476;8.310;2023-09-30T00:42:05;92151.13;;;13.23;100.00
53300;BME280;39187;48.476;8.310;2023-09-30T00:44:31;92150.31;;;13.50;100.00
53300;BME280;39187;48.476;8.310;2023-09-30T00:46:58;92152.91;;;13.53;100.00
53300;BME280;39187;48.476;8.310;2023-09-30T00:49:25;92151.38;;;13.52;100.00
53300;BME280;39187;48.476;8.310;2023-09-30T00:51:52;92155.94;;;13.55;100.00
53300;BME280;39187;48.476;8.310;2023-09-30T00:54:18;92149.06;;;13.54;100.00
53300;BME280;39187;48.476;8.310;2023-09-30T00:56:45;92151.38;;;13.52;100.00
53300;BME280;39187;48.476;8.310;2023-09-30T00:59:15;92148.72;;;13.52;100.00
53300;BME280;39187;48.476;8.310;2023-09-30T01:01:42;92151.75;;;13.54;100.00
53300;BME280;39187;48.476;8.310;2023-09-30T01:04:13;92150.22;;;13.53;100.00
53300;BME280;39187;48.476;8.310;2023-09-30T01:06:40;92154.13;;;13.49;100.00
53300;BME280;39187;48.476;8.310;2023-09-30T01:12:14;92150.69;;;13.48;100.00
53300;BME280;39187;48.476;8.310;2023-09-30T01:14:46;92150.31;;;13.50;100.00
53300;BME280;39187;48.476;8.310;2023-09-30T01:17:12;92148.44;;;13.47;100.00
53300;BME280;39187;48.476;8.310;2023-09-30T01:19:40;92148.06;;;13.45;100.00
53300;BME280;39187;48.476;8.310;2023-09-30T01:22:05;92143.84;;;13.47;100.00
53300;BME280;39187;48.476;8.310;2023-09-30T01:25:04;92146.50;;;13.47;100.00
53300;BME280;39187;48.476;8.310;2023-09-30T01:27:30;92144.59;;;13.48;100.00
53300;BME280;39187;48.476;8.310;2023-09-30T01:29:55;92145.00;;;13.46;100.00
53300;BME280;39187;48.476;8.310;2023-09-30T01:32:23;92145.00;;;13.46;100.00
53300;BME280;39187;48.476;8.310;2023-09-30T01:34:48;92140.06;;;13.45;100.00
53300;BME280;39187;48.476;8.310;2023-09-30T01:37:14;92143.09;;;13.47;100.00
53300;BME280;39187;48.476;8.310;2023-09-30T01:39:39;92145.13;;;13.39;100.00
53300;BME280;39187;48.476;8.310;2023-09-30T01:42:15;92141.16;;;13.47;100.00
53300;BME280;39187;48.476;8.310;2023-09-30T01:44:41;92140.75;;;13.49;100.00
53300;BME280;39187;48.476;8.310;2023-09-30T01:47:06;92137.38;;;13.45;100.00
53300;BME280;39187;48.476;8.310;2023-09-30T01:49:55;92126.28;;;13.46;100.00
53300;BME280;39187;48.476;8.310;2023-09-30T01:52:20;92129.31;;;13.48;100.00
53300;BME280;39187;48.476;8.310;2023-09-30T01:54:46;92132.19;;;13.38;100.00
53300;BME280;39187;48.476;8.310;2023-09-30T02:00:16;92132.09;;;13.41;100.00
53300;BME280;39187;48.476;8.310;2023-09-30T02:02:42;92131.94;;;13.29;100.00
53300;BME280;39187;48.476;8.310;2023-09-30T02:05:08;92134.38;;;13.43;100.00
53300;BME280;39187;48.476;8.310;2023-09-30T02:07:34;92138.91;;;13.46;100.00
53300;BME280;39187;48.476;8.310;2023-09-30T02:10:00;92147.97;;;13.52;100.00
53300;BME280;39187;48.476;8.310;2023-09-30T02:12:27;92148.31;;;13.54;100.00
53300;BME280;39187;48.476;8.310;2023-09-30T02:14:58;92148.25;;;13.57;100.00
53300;BME280;39187;48.476;8.310;2023-09-30T02:17:23;92137.63;;;13.54;100.00
53300;BME280;39187;48.476;8.310;2023-09-30T02:20:05;92150.19;;;13.57;100.00
53300;BME280;39187;48.476;8.310;2023-09-30T02:22:38;92145.16;;;13.59;100.00
53300;BME280;39187;48.476;8.310;2023-09-30T02:25:22;92130.63;;;13.60;100.00
53300;BME280;39187;48.476;8.310;2023-09-30T02:27:49;92138.41;;;13.51;100.00
53300;BME280;39187;48.476;8.310;2023-09-30T02:30:15;92138.28;;;13.58;100.00
53300;BME280;39187;48.476;8.310;2023-09-30T02:33:16;92142.88;;;13.57;100.00
53300;BME280;39187;48.476;8.310;2023-09-30T02:35:44;92144.41;;;13.58;100.00
53300;BME280;39187;48.476;8.310;2023-09-30T02:38:11;92143.25;;;13.59;100.00
53300;BME280;39187;48.476;8.310;2023-09-30T02:40:37;92138.97;;;13.42;100.00
53300;BME280;39187;48.476;8.310;2023-09-30T02:43:03;92151.38;;;13.52;100.00
53300;BME280;39187;48.476;8.310;2023-09-30T02:45:29;92150.22;;;13.53;100.00
53300;BME280;39187;48.476;8.310;2023-09-30T02:51:10;92153.66;;;13.54;100.00
53300;BME280;39187;48.476;8.310;2023-09-30T02:53:36;92152.34;;;13.42;100.00
53300;BME280;39187;48.476;8.310;2023-09-30T02:59:30;92147.78;;;13.39;100.00
53300;BME280;39187;48.476;8.310;2023-09-30T03:02:14;92155.75;;;13.19;100.00
53300;BME280;39187;48.476;8.310;2023-09-30T03:08:04;92157.41;;;13.37;100.00
53300;BME280;39187;48.476;8.310;2023-09-30T03:10:30;92163.44;;;13.41;100.00
53300;BME280;39187;48.476;8.310;2023-09-30T03:12:56;92162.16;;;13.49;100.00
53300;BME280;39187;48.476;8.310;2023-09-30T03:15:27;92163.59;;;13.53;100.00
53300;BME280;39187;48.476;8.310;2023-09-30T03:17:53;92168.19;;;13.53;100.00
53300;BME280;39187;48.476;8.310;2023-09-30T03:20:21;92169.72;;;13.54;100.00
53300;BME280;39187;48.476;8.310;2023-09-30T03:22:47;92167.78;;;13.54;100.00
53300;BME280;39187;48.476;8.310;2023-09-30T03:25:14;92167.41;;;13.56;100.00
53300;BME280;39187;48.476;8.310;2023-09-30T03:31:05;92152.09;;;13.56;100.00
53300;BME280;39187;48.476;8.310;2023-09-30T03:33:32;92152.44;;;13.58;100.00
53300;BME280;39187;48.476;8.310;2023-09-30T03:35:58;92149.88;;;13.28;100.00
53300;BME280;39187;48.476;8.310;2023-09-30T03:38:25;92145.91;;;13.13;100.00
53300;BME280;39187;48.476;8.310;2023-09-30T03:40:51;92139.47;;;13.34;100.00
53300;BME280;39187;48.476;8.310;2023-09-30T03:50:02;92129.44;;;13.41;100.00
53300;BME280;39187;48.476;8.310;2023-09-30T03:52:29;92137.44;;;13.41;100.00
53300;BME280;39187;48.476;8.310;2023-09-30T03:55:01;92122.78;;;13.26;100.00
53300;BME280;39187;48.476;8.310;2023-09-30T03:57:33;92121.91;;;13.33;100.00
53300;BME280;39187;48.476;8.310;2023-09-30T04:03:21;92141.69;;;13.39;100.00
53300;BME280;39187;48.476;8.310;2023-09-30T04:05:46;92146.34;;;13.08;100.00
53300;BME280;39187;48.476;8.310;2023-09-30T04:08:12;92140.47;;;13.20;100.00
53300;BME280;39187;48.476;8.310;2023-09-30T04:10:51;92144.44;;;13.35;100.00
53300;BME280;39187;48.476;8.310;2023-09-30T04:13:17;92140.13;;;13.41;100.00
53300;BME280;39187;48.476;8.310;2023-09-30T04:15:43;92135.47;;;13.45;100.00
53300;BME280;39187;48.476;8.310;2023-09-30T04:18:10;92141.16;;;13.47;100.00
53300;BME280;39187;48.476;8.310;2023-09-30T04:20:37;92146.13;;;13.49;100.00
53300;BME280;39187;48.476;8.310;2023-09-30T04:23:06;92146.88;;;13.49;100.00
53300;BME280;39187;48.476;8.310;2023-09-30T04:25:32;92143.38;;;13.52;100.00
53300;BME280;39187;48.476;8.310;2023-09-30T04:27:58;92152.50;;;13.55;100.00
53300;BME280;39187;48.476;8.310;2023-09-30T04:30:53;92165.13;;;13.54;100.00
53300;BME280;39187;48.476;8.310;2023-09-30T04:37:13;92158.66;;;13.52;100.00
53300;BME280;39187;48.476;8.310;2023-09-30T04:39:39;92166.28;;;13.53;100.00
53300;BME280;39187;48.476;8.310;2023-09-30T04:42:05;92163.97;;;13.55;100.00
53300;BME280;39187;48.476;8.310;2023-09-30T04:44:30;92162.38;;;13.58;100.00
53300;BME280;39187;48.476;8.310;2023-09-30T04:46:57;92158.53;;;13.59;100.00
53300;BME280;39187;48.476;8.310;2023-09-30T04:52:41;92171.16;;;13.58;100.00
53300;BME280;39187;48.476;8.310;2023-09-30T04:58:25;92181.56;;;13.53;100.00
53300;BME280;39187;48.476;8.310;2023-09-30T05:00:50;92183.09;;;13.54;100.00
53300;BME280;39187;48.476;8.310;2023-09-30T05:03:37;92178.13;;;13.52;100.00
53300;BME280;39187;48.476;8.310;2023-09-30T05:06:35;92179.28;;;13.51;100.00
53300;BME280;39187;48.476;8.310;2023-09-30T05:09:01;92171.34;;;13.48;100.00
53300;BME280;39187;48.476;8.310;2023-09-30T05:11:27;92182.44;;;13.46;100.00
53300;BME280;39187;48.476;8.310;2023-09-30T05:13:52;92181.34;;;13.44;100.00
53300;BME280;39187;48.476;8.310;2023-09-30T05:16:18;92172.63;;;13.40;100.00
53300;BME280;39187;48.476;8.310;2023-09-30T05:18:43;92180.59;;;13.43;100.00
53300;BME280;39187;48.476;8.310;2023-09-30T05:24:31;92163.78;;;13.43;100.00
53300;BME280;39187;48.476;8.310;2023-09-30T05:26:56;92174.06;;;13.44;100.00
53300;BME280;39187;48.476;8.310;2023-09-30T05:29:22;92172.13;;;13.45;100.00
53300;BME280;39187;48.476;8.310;2023-09-30T05:31:48;92177.38;;;13.29;100.00
53300;BME280;39187;48.476;8.310;2023-09-30T05:34:14;92166.72;;;13.25;100.00
53300;BME280;39187;48.476;8.310;2023-09-30T05:37:06;92168.19;;;13.30;100.00
53300;BME280;39187;48.476;8.310;2023-09-30T05:39:32;92159.66;;;13.38;100.00
53300;BME280;39187;48.476;8.310;2023-09-30T05:42:25;92159.66;;;13.38;100.00
53300;BME280;39187;48.476;8.310;2023-09-30T05:44:50;92169.59;;;13.38;100.00
53300;BME280;39187;48.476;8.310;2023-09-30T05:47:43;92170.47;;;13.31;100.00
53300;BME280;39187;48.476;8.310;2023-09-30T05:50:40;92173.88;;;13.32;100.00
53300;BME280;39187;48.476;8.310;2023-09-30T05:53:06;92179.28;;;13.28;100.00
53300;BME280;39187;48.476;8.310;2023-09-30T05:55:31;92177.38;;;13.29;100.00
53300;BME280;39187;48.476;8.310;2023-09-30T06:01:19;92183.59;;;13.22;100.00
53300;BME280;39187;48.476;8.310;2023-09-30T06:03:46;92186.72;;;13.17;100.00
53300;BME280;39187;48.476;8.310;2023-09-30T06:06:12;92196.19;;;13.21;100.00
53300;BME280;39187;48.476;8.310;2023-09-30T06:08:39;92201.56;;;13.21;100.00
53300;BME280;39187;48.476;8.310;2023-09-30T06:11:05;92200.69;;;13.28;100.00
53300;BME280;39187;48.476;8.310;2023-09-30T06:13:32;92204.81;;;13.33;100.00
53300;BME280;39187;48.476;8.310;2023-09-30T06:16:17;92205.03;;;13.18;100.00
53300;BME280;39187;48.476;8.310;2023-09-30T06:18:43;92208.44;;;13.19;100.00
53300;BME280;39187;48.476;8.310;2023-09-30T06:24:31;92202.16;;;13.56;100.00
53300;BME280;39187;48.476;8.310;2023-09-30T06:26:57;92200.66;;;13.55;100.00
53300;BME280;39187;48.476;8.310;2023-09-30T06:29:23;92204.13;;;13.75;100.00
53300;BME280;39187;48.476;8.310;2023-09-30T06:31:48;92199.47;;;13.79;100.00
53300;BME280;39187;48.476;8.310;2023-09-30T06:34:14;92193.94;;;13.90;100.00
53300;BME280;39187;48.476;8.310;2023-09-30T06:36:39;92197.06;;;14.08;100.00
53300;BME280;39187;48.476;8.310;2023-09-30T06:39:06;92214.09;;;14.18;100.00
53300;BME280;39187;48.476;8.310;2023-09-30T06:41:32;92223.63;;;14.19;100.00
53300;BME280;39187;48.476;8.310;2023-09-30T06:43:58;92225.50;;;14.41;100.00
53300;BME280;39187;48.476;8.310;2023-09-30T06:46:24;92224.41;;;13.96;100.00
53300;BME280;39187;48.476;8.310;2023-09-30T06:48:50;92245.13;;;14.35;100.00
53300;BME280;39187;48.476;8.310;2023-09-30T06:51:17;92236.44;;;14.51;100.00
53300;BME280;39187;48.476;8.310;2023-09-30T06:53:43;92238.84;;;14.84;100.00
53300;BME280;39187;48.476;8.310;2023-09-30T06:56:08;92240.22;;;14.53;100.00
53300;BME280;39187;48.476;8.310;2023-09-30T07:01:56;92230.66;;;14.09;100.00
53300;BME280;39187;48.476;8.310;2023-09-30T07:04:21;92230.28;;;15.09;100.00
53300;BME280;39187;48.476;8.310;2023-09-30T07:06:47;92235.19;;;14.75;100.00
53300;BME280;39187;48.476;8.310;2023-09-30T07:09:12;92228.97;;;15.50;100.00
53300;BME280;39187;48.476;8.310;2023-09-30T07:11:38;92217.16;;;15.96;100.00
53300;BME280;39187;48.476;8.310;2023-09-30T07:14:04;92230.50;;;15.83;100.00
53300;BME280;39187;48.476;8.310;2023-09-30T07:16:30;92226.56;;;16.33;100.00
53300;BME280;39187;48.476;8.310;2023-09-30T07:18:55;92239.84;;;16.69;98.85
53300;BME280;39187;48.476;8.310;2023-09-30T07:21:21;92236.75;;;16.83;96.16
53300;BME280;39187;48.476;8.310;2023-09-30T07:23:46;92243.91;;;17.15;95.63
53300;BME280;39187;48.476;8.310;2023-09-30T07:26:13;92249.31;;;17.53;92.49
53300;BME280;39187;48.476;8.310;2023-09-30T07:28:40;92248.47;;;17.69;88.96
53300;BME280;39187;48.476;8.310;2023-09-30T07:31:05;92260.84;;;17.91;88.88
53300;BME280;39187;48.476;8.310;2023-09-30T07:33:31;92261.59;;;17.92;88.08
53300;BME280;39187;48.476;8.310;2023-09-30T07:35:56;92266.19;;;18.51;84.73
53300;BME280;39187;48.476;8.310;2023-09-30T07:38:29;92253.25;;;18.80;81.74
53300;BME280;39187;48.476;8.310;2023-09-30T07:40:54;92260.38;;;19.18;79.53
53300;BME280;39187;48.476;8.310;2023-09-30T07:43:20;92259.72;;;19.36;77.66
53300;BME280;39187;48.476;8.310;2023-09-30T07:45:45;92256.75;;;19.43;76.57
53300;BME280;39187;48.476;8.310;2023-09-30T07:50:41;92262.06;;;19.86;72.36
53300;BME280;39187;48.476;8.310;2023-09-30T07:53:15;92253.72;;;20.02;69.26
53300;BME280;39187;48.476;8.310;2023-09-30T07:55:40;92259.63;;;19.39;70.70
53300;BME280;39187;48.476;8.310;2023-09-30T07:58:06;92259.34;;;19.46;73.66
53300;BME280;39187;48.476;8.310;2023-09-30T08:00:33;92256.00;;;19.64;70.27
53300;BME280;39187;48.476;8.310;2023-09-30T08:02:59;92246.47;;;19.50;69.23
53300;BME280;39187;48.476;8.310;2023-09-30T08:05:26;92247.72;;;20.08;67.43
53300;BME280;39187;48.476;8.310;2023-09-30T08:07:52;92235.03;;;20.35;66.42
53300;BME280;39187;48.476;8.310;2023-09-30T08:10:17;92236.84;;;20.48;64.37
53300;BME280;39187;48.476;8.310;2023-09-30T08:12:43;92241.63;;;20.44;62.28
53300;BME280;39187;48.476;8.310;2023-09-30T08:15:37;92238.91;;;20.44;62.57
53300;BME280;39187;48.476;8.310;2023-09-30T08:18:18;92241.75;;;20.31;61.57
53300;BME280;39187;48.476;8.310;2023-09-30T08:20:44;92251.47;;;20.10;61.65
53300;BME280;39187;48.476;8.310;2023-09-30T08:23:10;92257.09;;;19.85;60.94
53300;BME280;39187;48.476;8.310;2023-09-30T08:25:37;92259.09;;;19.53;60.94
53300;BME280;39187;48.476;8.310;2023-09-30T08:28:04;92255.84;;;19.68;62.30
53300;BME280;39187;48.476;8.310;2023-09-30T08:30:29;92260.53;;;19.45;64.06
53300;BME280;39187;48.476;8.310;2023-09-30T08:32:56;92256.38;;;19.53;64.09
53300;BME280;39187;48.476;8.310;2023-09-30T08:35:21;92253.50;;;18.95;63.28
53300;BME280;39187;48.476;8.310;2023-09-30T08:37:47;92261.03;;;18.78;62.15
53300;BME280;39187;48.476;8.310;2023-09-30T08:40:12;92262.84;;;19.03;61.31
53300;BME280;39187;48.476;8.310;2023-09-30T08:42:40;92251.19;;;19.37;59.00
53300;BME280;39187;48.476;8.310;2023-09-30T08:45:08;92260.28;;;19.00;60.28
53300;BME280;39187;48.476;8.310;2023-09-30T08:47:36;92261.34;;;19.33;60.07
53300;BME280;39187;48.476;8.310;2023-09-30T08:50:03;92268.59;;;19.67;60.68
53300;BME280;39187;48.476;8.310;2023-09-30T08:52:35;92272.59;;;19.93;59.21
53300;BME280;39187;48.476;8.310;2023-09-30T08:55:03;92263.72;;;19.93;57.61
53300;BME280;39187;48.476;8.310;2023-09-30T08:57:30;92265.16;;;20.16;57.61
53300;BME280;39187;48.476;8.310;2023-09-30T08:59:58;92278.78;;;20.03;56.64
53300;BME280;39187;48.476;8.310;2023-09-30T09:02:25;92278.09;;;19.81;56.10
53300;BME280;39187;48.476;8.310;2023-09-30T09:04:50;92269.34;;;20.08;54.69
53300;BME280;39187;48.476;8.310;2023-09-30T09:07:16;92264.03;;;20.35;54.15
53300;BME280;39187;48.476;8.310;2023-09-30T09:10:02;92261.47;;;20.40;53.44
53300;BME280;39187;48.476;8.310;2023-09-30T09:12:29;92255.91;;;20.53;52.38
53300;BME280;39187;48.476;8.310;2023-09-30T09:14:54;92255.75;;;20.84;50.61
53300;BME280;39187;48.476;8.310;2023-09-30T09:17:20;92264.19;;;20.40;49.09
53300;BME280;39187;48.476;8.310;2023-09-30T09:20:08;92258.84;;;20.10;47.95
53300;BME280;39187;48.476;8.310;2023-09-30T09:22:42;92252.63;;;20.67;48.54
53300;BME280;39187;48.476;8.310;2023-09-30T09:31:40;92252.97;;;19.62;49.45
53300;BME280;39187;48.476;8.310;2023-09-30T09:34:35;92240.50;;;20.05;47.83
53300;BME280;39187;48.476;8.310;2023-09-30T09:37:21;92248.56;;;20.54;48.12
53300;BME280;39187;48.476;8.310;2023-09-30T09:42:30;92234.19;;;19.28;49.85
53300;BME280;39187;48.476;8.310;2023-09-30T09:44:59;92228.72;;;19.71;50.34
53300;BME280;39187;48.476;8.310;2023-09-30T09:47:24;92229.63;;;19.86;50.01
53300;BME280;39187;48.476;8.310;2023-09-30T09:49:51;92231.75;;;19.82;50.34
53300;BME280;39187;48.476;8.310;2023-09-30T09:52:19;92225.00;;;19.87;50.49
53300;BME280;39187;48.476;8.310;2023-09-30T09:54:45;92217.06;;;20.01;49.71
53300;BME280;39187;48.476;8.310;2023-09-30T09:57:12;92218.59;;;20.21;47.20
53300;BME280;39187;48.476;8.310;2023-09-30T09:59:42;92236.38;;;20.49;47.01
53300;BME280;39187;48.476;8.310;2023-09-30T10:02:12;92240.59;;;20.77;46.08
53300;BME280;39187;48.476;8.310;2023-09-30T10:04:43;92237.06;;;20.13;46.86
53300;BME280;39187;48.476;8.310;2023-09-30T10:10:17;92240.38;;;20.26;46.30
53300;BME280;39187;48.476;8.310;2023-09-30T10:12:44;92242.78;;;20.24;45.91
53300;BME280;39187;48.476;8.310;2023-09-30T10:18:22;92242.31;;;20.17;46.24
53300;BME280;39187;48.476;8.310;2023-09-30T10:20:48;92245.63;;;20.21;47.09
53300;BME280;39187;48.476;8.310;2023-09-30T10:25:48;92245.75;;;20.17;46.99
53300;BME280;39187;48.476;8.310;2023-09-30T10:31:11;92245.72;;;19.99;47.27
53300;BME280;39187;48.476;8.310;2023-09-30T10:36:29;92240.66;;;19.52;48.06
53300;BME280;39187;48.476;8.310;2023-09-30T10:38:55;92251.88;;;19.50;48.21
53300;BME280;39187;48.476;8.310;2023-09-30T10:46:58;92243.69;;;19.41;49.20
53300;BME280;39187;48.476;8.310;2023-09-30T10:52:47;92240.91;;;19.23;50.45
53300;BME280;39187;48.476;8.310;2023-09-30T10:55:18;92241.00;;;19.41;49.60
53300;BME280;39187;48.476;8.310;2023-09-30T10:57:44;92244.38;;;19.23;51.28
53300;BME280;39187;48.476;8.310;2023-09-30T11:00:11;92231.44;;;18.88;51.65
53300;BME280;39187;48.476;8.310;2023-09-30T11:02:50;92227.91;;;18.22;52.95
53300;BME280;39187;48.476;8.310;2023-09-30T11:05:17;92237.97;;;17.96;55.11
53300;BME280;39187;48.476;8.310;2023-09-30T11:08:16;92247.75;;;18.15;54.96
53300;BME280;39187;48.476;8.310;2023-09-30T11:10:51;92236.28;;;17.89;54.74
53300;BME280;39187;48.476;8.310;2023-09-30T11:13:18;92237.47;;;17.88;55.11
53300;BME280;39187;48.476;8.310;2023-09-30T11:15:46;92234.97;;;17.94;54.00
53300;BME280;39187;48.476;8.310;2023-09-30T11:18:29;92219.84;;;18.09;54.71
53300;BME280;39187;48.476;8.310;2023-09-30T11:21:03;92217.34;;;17.68;55.27
53300;BME280;39187;48.476;8.310;2023-09-30T11:23:31;92222.09;;;17.63;55.62
53300;BME280;39187;48.476;8.310;2023-09-30T11:25:56;92216.22;;;18.03;54.62
53300;BME280;39187;48.476;8.310;2023-09-30T11:28:44;92209.00;;;17.87;54.33
53300;BME280;39187;48.476;8.310;2023-09-30T11:31:12;92208.19;;;17.65;55.01
53300;BME280;39187;48.476;8.310;2023-09-30T11:33:53;92208.28;;;17.36;55.30
53300;BME280;39187;48.476;8.310;2023-09-30T11:39:27;92219.78;;;17.87;54.92
53300;BME280;39187;48.476;8.310;2023-09-30T11:41:53;92213.66;;;18.21;53.67
53300;BME280;39187;48.476;8.310;2023-09-30T11:44:20;92214.09;;;18.20;54.12
53300;BME280;39187;48.476;8.310;2023-09-30T11:47:00;92220.44;;;18.26;54.03
53300;BME280;39187;48.476;8.310;2023-09-30T11:52:00;92217.97;;;18.19;54.54
53300;BME280;39187;48.476;8.310;2023-09-30T11:54:30;92217.13;;;18.56;52.72
53300;BME280;39187;48.476;8.310;2023-09-30T12:00:32;92215.31;;;18.75;51.90
53300;BME280;39187;48.476;8.310;2023-09-30T12:02:59;92222.84;;;18.24;53.48
53300;BME280;39187;48.476;8.310;2023-09-30T12:05:25;92213.78;;;17.58;56.40
53300;BME280;39187;48.476;8.310;2023-09-30T12:08:26;92218.38;;;17.95;54.79
53300;BME280;39187;48.476;8.310;2023-09-30T12:10:52;92221.19;;;17.92;56.46
53300;BME280;39187;48.476;8.310;2023-09-30T12:13:17;92224.13;;;17.85;56.92
53300;BME280;39187;48.476;8.310;2023-09-30T12:16:07;92226.25;;;18.24;56.80
53300;BME280;39187;48.476;8.310;2023-09-30T12:18:43;92226.25;;;18.24;58.19
53300;BME280;39187;48.476;8.310;2023-09-30T12:21:10;92219.44;;;18.67;56.90
53300;BME280;39187;48.476;8.310;2023-09-30T12:23:36;92219.88;;;18.87;56.07
53300;BME280;39187;48.476;8.310;2023-09-30T12:26:02;92223.44;;;18.84;55.13
53300;BME280;39187;48.476;8.310;2023-09-30T12:28:44;92217.81;;;18.91;54.67
53300;BME280;39187;48.476;8.310;2023-09-30T12:31:09;92230.44;;;18.94;54.55
53300;BME280;39187;48.476;8.310;2023-09-30T12:33:36;92220.41;;;18.38;55.67
53300;BME280;39187;48.476;8.310;2023-09-30T12:36:01;92211.81;;;18.53;55.79
53300;BME280;39187;48.476;8.310;2023-09-30T12:38:27;92213.75;;;18.52;55.93
53300;BME280;39187;48.476;8.310;2023-09-30T12:40:54;92221.50;;;17.94;59.27
53300;BME280;39187;48.476;8.310;2023-09-30T12:43:21;92214.47;;;18.09;58.39
53300;BME280;39187;48.476;8.310;2023-09-30T12:45:47;92215.47;;;18.24;57.79
53300;BME280;39187;48.476;8.310;2023-09-30T12:48:13;92214.28;;;18.25;56.03
53300;BME280;39187;48.476;8.310;2023-09-30T12:50:40;92209.94;;;18.06;55.81
53300;BME280;39187;48.476;8.310;2023-09-30T12:53:05;92206.50;;;17.93;55.24
53300;BME280;39187;48.476;8.310;2023-09-30T12:55:32;92205.09;;;18.01;54.59
53300;BME280;39187;48.476;8.310;2023-09-30T12:57:57;92198.81;;;18.17;52.67
53300;BME280;39187;48.476;8.310;2023-09-30T13:00:25;92204.75;;;18.12;53.58
53300;BME280;39187;48.476;8.310;2023-09-30T13:02:52;92196.13;;;18.17;54.00
53300;BME280;39187;48.476;8.310;2023-09-30T13:05:18;92200.59;;;18.32;53.64
53300;BME280;39187;48.476;8.310;2023-09-30T13:07:43;92201.41;;;18.42;53.75
53300;BME280;39187;48.476;8.310;2023-09-30T13:10:16;92208.03;;;18.50;53.69
53300;BME280;39187;48.476;8.310;2023-09-30T13:12:42;92199.75;;;18.57;53.48
53300;BME280;39187;48.476;8.310;2023-09-30T13:15:08;92202.09;;;18.33;53.61
53300;BME280;39187;48.476;8.310;2023-09-30T13:17:34;92208.84;;;18.38;53.26
53300;BME280;39187;48.476;8.310;2023-09-30T13:20:00;92206.53;;;18.27;55.08
53300;BME280;39187;48.476;8.310;2023-09-30T13:22:54;92202.84;;;17.99;54.39
53300;BME280;39187;48.476;8.310;2023-09-30T13:25:20;92194.88;;;17.96;55.11
53300;BME280;39187;48.476;8.310;2023-09-30T13:27:46;92189.81;;;18.32;54.81
53300;BME280;39187;48.476;8.310;2023-09-30T13:30:11;92189.91;;;18.07;54.25
53300;BME280;39187;48.476;8.310;2023-09-30T13:32:37;92188.38;;;18.06;53.28
53300;BME280;39187;48.476;8.310;2023-09-30T13:35:04;92187.28;;;18.16;52.93
53300;BME280;39187;48.476;8.310;2023-09-30T13:41:07;92187.72;;;18.15;52.57
53300;BME280;39187;48.476;8.310;2023-09-30T13:43:33;92198.22;;;18.00;54.03
53300;BME280;39187;48.476;8.310;2023-09-30T13:46:28;92193.97;;;17.52;56.79
53300;BME280;39187;48.476;8.310;2023-09-30T13:48:56;92195.75;;;17.93;56.67
53300;BME280;39187;48.476;8.310;2023-09-30T13:51:22;92195.81;;;18.15;56.40
53300;BME280;39187;48.476;8.310;2023-09-30T13:53:48;92189.28;;;18.25;56.08
53300;BME280;39187;48.476;8.310;2023-09-30T13:56:14;92192.72;;;18.25;57.14
53300;BME280;39187;48.476;8.310;2023-09-30T13:58:39;92194.47;;;18.19;58.10
53300;BME280;39187;48.476;8.310;2023-09-30T14:01:05;92194.59;;;17.81;59.59
53300;BME280;39187;48.476;8.310;2023-09-30T14:03:30;92188.03;;;17.82;60.43
53300;BME280;39187;48.476;8.310;2023-09-30T14:05:56;92192.81;;;18.00;59.66
53300;BME280;39187;48.476;8.310;2023-09-30T14:08:22;92194.88;;;17.96;59.38
53300;BME280;39187;48.476;8.310;2023-09-30T14:10:49;92186.66;;;17.65;59.71
53300;BME280;39187;48.476;8.310;2023-09-30T14:13:17;92182.66;;;17.70;58.45
53300;BME280;39187;48.476;8.310;2023-09-30T14:15:42;92177.22;;;17.95;57.65
53300;BME280;39187;48.476;8.310;2023-09-30T14:18:08;92184.88;;;18.18;57.55
53300;BME280;39187;48.476;8.310;2023-09-30T14:20:33;92177.56;;;17.84;61.15
53300;BME280;39187;48.476;8.310;2023-09-30T14:22:59;92180.66;;;17.95;61.99
53300;BME280;39187;48.476;8.310;2023-09-30T14:25:25;92172.38;;;18.24;60.70
53300;BME280;39187;48.476;8.310;2023-09-30T14:27:51;92176.13;;;18.27;61.54
53300;BME280;39187;48.476;8.310;2023-09-30T14:30:17;92171.00;;;18.20;62.32
53300;BME280;39187;48.476;8.310;2023-09-30T14:32:45;92168.84;;;18.15;63.48
53300;BME280;39187;48.476;8.310;2023-09-30T14:35:11;92171.00;;;18.41;61.90
53300;BME280;39187;48.476;8.310;2023-09-30T14:37:36;92160.59;;;17.62;62.28
53300;BME280;39187;48.476;8.310;2023-09-30T14:40:02;92161.03;;;17.22;63.22
53300;BME280;39187;48.476;8.310;2023-09-30T14:42:39;92161.78;;;17.10;64.42
53300;BME280;39187;48.476;8.310;2023-09-30T14:45:05;92166.75;;;17.37;64.00
53300;BME280;39187;48.476;8.310;2023-09-30T14:54:09;92154.06;;;17.97;62.41
53300;BME280;39187;48.476;8.310;2023-09-30T14:56:35;92157.59;;;17.94;62.49
53300;BME280;39187;48.476;8.310;2023-09-30T14:59:01;92156.41;;;17.95;62.68